sensor_id;sensor_type;location;lat;lon;timestamp;pressure;altitude;pressure_sealevel;temperature;humidity
33075;BME280;19433;51.292;6.868;2023-08-08T00:01:10;100333.84;;;14.07;97.44
33075;BME280;19433;51.292;6.868;2023-08-08T00:03:35;100339.09;;;13.97;98.00
33075;BME280;19433;51.292;6.868;2023-08-08T00:06:00;100332.69;;;13.97;98.38
33075;BME280;19433;51.292;6.868;2023-08-08T00:08:26;100326.38;;;13.90;98.44
33075;BME280;19433;51.292;6.868;2023-08-08T00:10:51;100323.72;;;13.95;99.11
33075;BME280;19433;51.292;6.868;2023-08-08T00:13:17;100315.16;;;13.78;98.95
33075;BME280;19433;51.292;6.868;2023-08-08T00:15:42;100307.91;;;13.77;99.53
33075;BME280;19433;51.292;6.868;2023-08-08T00:18:08;100302.13;;;13.79;99.28
33075;BME280;19433;51.292;6.868;2023-08-08T00:20:33;100298.81;;;13.70;99.31
33075;BME280;19433;51.292;6.868;2023-08-08T00:22:59;100312.31;;;13.85;99.20
33075;BME280;19433;51.292;6.868;2023-08-08T00:25:24;100286.16;;;13.74;98.32
33075;BME280;19433;51.292;6.868;2023-08-08T00:27:49;100311.75;;;13.58;100.00
33075;BME280;19433;51.292;6.868;2023-08-08T00:30:15;100313.09;;;13.49;100.00
33075;BME280;19433;51.292;6.868;2023-08-08T00:32:40;100291.91;;;13.29;100.00
33075;BME280;19433;51.292;6.868;2023-08-08T00:35:06;100298.31;;;13.30;100.00
33075;BME280;19433;51.292;6.868;2023-08-08T00:37:31;100293.31;;;13.14;100.00
33075;BME280;19433;51.292;6.868;2023-08-08T00:39:56;100307.31;;;13.25;100.00
33075;BME280;19433;51.292;6.868;2023-08-08T00:42:22;100308.69;;;13.10;100.00
33075;BME280;19433;51.292;6.868;2023-08-08T00:44:47;100314.66;;;13.13;100.00
33075;BME280;19433;51.292;6.868;2023-08-08T00:47:12;100313.41;;;13.09;100.00
33075;BME280;19433;51.292;6.868;2023-08-08T00:49:37;100309.41;;;13.30;100.00
33075;BME280;19433;51.292;6.868;2023-08-08T00:52:03;100308.94;;;13.08;100.00
33075;BME280;19433;51.292;6.868;2023-08-08T00:54:30;100307.75;;;12.91;100.00
33075;BME280;19433;51.292;6.868;2023-08-08T00:56:55;100308.81;;;12.96;100.00
33075;BME280;19433;51.292;6.868;2023-08-08T00:59:21;100300.75;;;12.88;100.00
33075;BME280;19433;51.292;6.868;2023-08-08T01:01:47;100304.44;;;13.07;100.00
33075;BME280;19433;51.292;6.868;2023-08-08T01:04:12;100312.59;;;13.02;100.00
33075;BME280;19433;51.292;6.868;2023-08-08T01:06:46;100321.50;;;13.11;100.00
33075;BME280;19433;51.292;6.868;2023-08-08T01:09:24;100313.53;;;12.89;100.00
33075;BME280;19433;51.292;6.868;2023-08-08T01:11:52;100309.91;;;12.89;100.00
33075;BME280;19433;51.292;6.868;2023-08-08T01:14:19;100307.19;;;12.82;100.00
33075;BME280;19433;51.292;6.868;2023-08-08T01:16:45;100307.19;;;12.82;100.00
33075;BME280;19433;51.292;6.868;2023-08-08T01:19:17;100304.84;;;12.79;100.00
33075;BME280;19433;51.292;6.868;2023-08-08T01:21:48;100294.53;;;12.93;100.00
33075;BME280;19433;51.292;6.868;2023-08-08T01:24:23;100298.28;;;13.05;100.00
33075;BME280;19433;51.292;6.868;2023-08-08T01:26:51;100303.50;;;12.88;100.00
33075;BME280;19433;51.292;6.868;2023-08-08T01:29:17;100293.47;;;12.94;100.00
33075;BME280;19433;51.292;6.868;2023-08-08T01:31:42;100294.47;;;12.99;100.00
33075;BME280;19433;51.292;6.868;2023-08-08T01:34:08;100297.88;;;13.01;100.00
33075;BME280;19433;51.292;6.868;2023-08-08T01:36:40;100293.88;;;12.97;100.00
33075;BME280;19433;51.292;6.868;2023-08-08T01:39:12;100296.16;;;13.00;100.00
33075;BME280;19433;51.292;6.868;2023-08-08T01:41:39;100291.69;;;12.99;100.00
33075;BME280;19433;51.292;6.868;2023-08-08T01:44:06;100291.47;;;13.01;100.00
33075;BME280;19433;51.292;6.868;2023-08-08T01:46:33;100287.53;;;12.84;100.00
33075;BME280;19433;51.292;6.868;2023-08-08T01:48:58;100286.44;;;12.91;100.00
33075;BME280;19433;51.292;6.868;2023-08-08T01:51:25;100289.94;;;12.80;100.00
33075;BME280;19433;51.292;6.868;2023-08-08T01:53:50;100282.72;;;12.73;100.00
33075;BME280;19433;51.292;6.868;2023-08-08T01:56:16;100286.75;;;12.77;100.00
33075;BME280;19433;51.292;6.868;2023-08-08T01:58:41;100280.88;;;12.91;100.00
33075;BME280;19433;51.292;6.868;2023-08-08T02:01:06;100277.06;;;12.86;100.00
33075;BME280;19433;51.292;6.868;2023-08-08T02:03:32;100277.22;;;12.97;100.00
33075;BME280;19433;51.292;6.868;2023-08-08T02:05:57;100271.84;;;13.02;100.00
33075;BME280;19433;51.292;6.868;2023-08-08T02:08:22;100267.50;;;13.13;100.00
33075;BME280;19433;51.292;6.868;2023-08-08T02:10:48;100271.25;;;13.25;100.00
33075;BME280;19433;51.292;6.868;2023-08-08T02:13:13;100270.13;;;13.33;100.00
33075;BME280;19433;51.292;6.868;2023-08-08T02:15:38;100252.50;;;13.21;100.00
33075;BME280;19433;51.292;6.868;2023-08-08T02:18:04;100265.94;;;13.24;100.00
33075;BME280;19433;51.292;6.868;2023-08-08T02:20:29;100251.50;;;13.15;100.00
33075;BME280;19433;51.292;6.868;2023-08-08T02:22:54;100262.28;;;12.98;100.00
33075;BME280;19433;51.292;6.868;2023-08-08T02:25:20;100262.50;;;12.97;100.00
33075;BME280;19433;51.292;6.868;2023-08-08T02:27:45;100240.78;;;12.94;100.00
33075;BME280;19433;51.292;6.868;2023-08-08T02:30:11;100250.59;;;12.90;100.00
33075;BME280;19433;51.292;6.868;2023-08-08T02:32:36;100249.31;;;12.92;100.00
33075;BME280;19433;51.292;6.868;2023-08-08T02:35:02;100246.09;;;12.95;100.00
33075;BME280;19433;51.292;6.868;2023-08-08T02:37:28;100251.63;;;12.95;100.00
33075;BME280;19433;51.292;6.868;2023-08-08T02:39:55;100255.25;;;12.96;100.00
33075;BME280;19433;51.292;6.868;2023-08-08T02:42:20;100240.69;;;13.00;100.00
33075;BME280;19433;51.292;6.868;2023-08-08T02:44:45;100236.00;;;13.01;100.00
33075;BME280;19433;51.292;6.868;2023-08-08T02:47:25;100228.72;;;12.82;100.00
33075;BME280;19433;51.292;6.868;2023-08-08T02:49:50;100242.31;;;12.83;100.00
33075;BME280;19433;51.292;6.868;2023-08-08T02:52:15;100242.50;;;12.88;100.00
33075;BME280;19433;51.292;6.868;2023-08-08T02:54:42;100232.38;;;13.00;100.00
33075;BME280;19433;51.292;6.868;2023-08-08T02:57:10;100234.94;;;13.02;100.00
33075;BME280;19433;51.292;6.868;2023-08-08T02:59:37;100238.22;;;12.92;100.00
33075;BME280;19433;51.292;6.868;2023-08-08T03:02:02;100235.22;;;12.94;100.00
33075;BME280;19433;51.292;6.868;2023-08-08T03:04:40;100224.47;;;13.04;100.00
33075;BME280;19433;51.292;6.868;2023-08-08T03:07:39;100225.28;;;13.11;100.00
33075;BME280;19433;51.292;6.868;2023-08-08T03:10:05;100224.47;;;13.04;100.00
33075;BME280;19433;51.292;6.868;2023-08-08T03:12:31;100217.06;;;12.98;100.00
33075;BME280;19433;51.292;6.868;2023-08-08T03:14:56;100229.13;;;13.10;100.00
33075;BME280;19433;51.292;6.868;2023-08-08T03:17:22;100224.19;;;13.12;100.00
33075;BME280;19433;51.292;6.868;2023-08-08T03:19:47;100224.94;;;13.26;100.00
33075;BME280;19433;51.292;6.868;2023-08-08T03:22:12;100231.16;;;13.21;100.00
33075;BME280;19433;51.292;6.868;2023-08-08T03:24:38;100229.19;;;13.28;100.00
33075;BME280;19433;51.292;6.868;2023-08-08T03:27:03;100237.22;;;13.12;100.00
33075;BME280;19433;51.292;6.868;2023-08-08T03:29:28;100238.47;;;13.16;100.00
33075;BME280;19433;51.292;6.868;2023-08-08T03:31:54;100241.19;;;13.22;100.00
33075;BME280;19433;51.292;6.868;2023-08-08T03:34:19;100233.50;;;13.24;100.00
33075;BME280;19433;51.292;6.868;2023-08-08T03:36:45;100226.25;;;13.23;100.00
33075;BME280;19433;51.292;6.868;2023-08-08T03:39:10;100233.94;;;13.21;100.00
33075;BME280;19433;51.292;6.868;2023-08-08T03:41:35;100232.75;;;13.35;100.00
33075;BME280;19433;51.292;6.868;2023-08-08T03:44:02;100231.97;;;13.47;100.00
33075;BME280;19433;51.292;6.868;2023-08-08T03:46:28;100227.81;;;13.37;100.00
33075;BME280;19433;51.292;6.868;2023-08-08T03:48:53;100234.22;;;13.38;100.00
33075;BME280;19433;51.292;6.868;2023-08-08T03:51:18;100240.78;;;13.44;100.00
33075;BME280;19433;51.292;6.868;2023-08-08T03:53:43;100233.41;;;13.31;100.00
33075;BME280;19433;51.292;6.868;2023-08-08T03:56:09;100231.44;;;13.38;100.00
33075;BME280;19433;51.292;6.868;2023-08-08T03:58:34;100236.38;;;13.36;100.00
33075;BME280;19433;51.292;6.868;2023-08-08T04:00:59;100231.63;;;13.43;100.00
33075;BME280;19433;51.292;6.868;2023-08-08T04:03:25;100209.81;;;13.22;100.00
33075;BME280;19433;51.292;6.868;2023-08-08T04:05:50;100225.75;;;13.51;100.00
33075;BME280;19433;51.292;6.868;2023-08-08T04:08:16;100224.13;;;13.44;100.00
33075;BME280;19433;51.292;6.868;2023-08-08T04:10:42;100216.13;;;13.54;100.00
33075;BME280;19433;51.292;6.868;2023-08-08T04:13:08;100227.41;;;13.34;100.00
33075;BME280;19433;51.292;6.868;2023-08-08T04:15:33;100231.25;;;13.33;100.00
33075;BME280;19433;51.292;6.868;2023-08-08T04:17:58;100215.19;;;13.17;100.00
33075;BME280;19433;51.292;6.868;2023-08-08T04:20:24;100215.59;;;13.20;100.00
33075;BME280;19433;51.292;6.868;2023-08-08T04:22:49;100221.41;;;13.37;100.00
33075;BME280;19433;51.292;6.868;2023-08-08T04:25:15;100212.59;;;13.22;100.00
33075;BME280;19433;51.292;6.868;2023-08-08T04:27:40;100217.97;;;13.42;100.00
33075;BME280;19433;51.292;6.868;2023-08-08T04:30:06;100219.63;;;13.24;100.00
33075;BME280;19433;51.292;6.868;2023-08-08T04:32:35;100214.84;;;13.31;100.00
33075;BME280;19433;51.292;6.868;2023-08-08T04:35:00;100217.25;;;13.46;100.00
33075;BME280;19433;51.292;6.868;2023-08-08T04:37:26;100215.28;;;13.53;100.00
33075;BME280;19433;51.292;6.868;2023-08-08T04:39:51;100222.06;;;13.57;100.00
33075;BME280;19433;51.292;6.868;2023-08-08T04:42:16;100220.03;;;13.46;100.00
33075;BME280;19433;51.292;6.868;2023-08-08T04:44:42;100217.75;;;13.43;100.00
33075;BME280;19433;51.292;6.868;2023-08-08T04:47:07;100214.34;;;13.41;100.00
33075;BME280;19433;51.292;6.868;2023-08-08T04:49:32;100209.06;;;13.33;100.00
33075;BME280;19433;51.292;6.868;2023-08-08T04:51:58;100203.16;;;13.48;100.00
33075;BME280;19433;51.292;6.868;2023-08-08T04:54:24;100196.97;;;13.46;100.00
33075;BME280;19433;51.292;6.868;2023-08-08T04:56:49;100200.56;;;13.71;100.00
33075;BME280;19433;51.292;6.868;2023-08-08T04:59:14;100194.59;;;13.67;100.00
33075;BME280;19433;51.292;6.868;2023-08-08T05:01:40;100201.31;;;13.78;100.00
33075;BME280;19433;51.292;6.868;2023-08-08T05:04:05;100183.50;;;13.67;100.00
33075;BME280;19433;51.292;6.868;2023-08-08T05:06:31;100189.28;;;13.66;100.00
33075;BME280;19433;51.292;6.868;2023-08-08T05:08:56;100191.13;;;13.54;100.00
33075;BME280;19433;51.292;6.868;2023-08-08T05:11:22;100193.94;;;13.72;100.00
33075;BME280;19433;51.292;6.868;2023-08-08T05:13:47;100204.06;;;13.60;100.00
33075;BME280;19433;51.292;6.868;2023-08-08T05:16:13;100194.31;;;13.57;100.00
33075;BME280;19433;51.292;6.868;2023-08-08T05:18:38;100196.38;;;13.62;100.00
33075;BME280;19433;51.292;6.868;2023-08-08T05:21:03;100201.69;;;13.63;100.00
33075;BME280;19433;51.292;6.868;2023-08-08T05:23:29;100201.84;;;13.87;100.00
33075;BME280;19433;51.292;6.868;2023-08-08T05:25:55;100202.25;;;13.72;100.00
33075;BME280;19433;51.292;6.868;2023-08-08T05:28:20;100198.41;;;13.73;100.00
33075;BME280;19433;51.292;6.868;2023-08-08T05:30:46;100210.19;;;13.68;100.00
33075;BME280;19433;51.292;6.868;2023-08-08T05:33:11;100205.88;;;13.72;100.00
33075;BME280;19433;51.292;6.868;2023-08-08T05:35:37;100195.06;;;13.64;100.00
33075;BME280;19433;51.292;6.868;2023-08-08T05:38:02;100204.94;;;13.60;100.00
33075;BME280;19433;51.292;6.868;2023-08-08T05:40:28;100202.88;;;13.56;100.00
33075;BME280;19433;51.292;6.868;2023-08-08T05:42:53;100205.09;;;13.65;100.00
33075;BME280;19433;51.292;6.868;2023-08-08T05:45:19;100194.78;;;13.72;100.00
33075;BME280;19433;51.292;6.868;2023-08-08T05:47:44;100208.03;;;13.89;100.00
33075;BME280;19433;51.292;6.868;2023-08-08T05:50:09;100208.09;;;14.00;100.00
33075;BME280;19433;51.292;6.868;2023-08-08T05:52:35;100189.50;;;13.83;100.00
33075;BME280;19433;51.292;6.868;2023-08-08T05:55:00;100207.06;;;14.13;100.00
33075;BME280;19433;51.292;6.868;2023-08-08T05:57:26;100200.22;;;13.97;100.00
33075;BME280;19433;51.292;6.868;2023-08-08T05:59:51;100200.50;;;14.07;100.00
33075;BME280;19433;51.292;6.868;2023-08-08T06:02:17;100209.06;;;14.06;100.00
33075;BME280;19433;51.292;6.868;2023-08-08T06:04:42;100207.06;;;14.13;100.00
33075;BME280;19433;51.292;6.868;2023-08-08T06:07:08;100213.69;;;14.12;100.00
33075;BME280;19433;51.292;6.868;2023-08-08T06:09:33;100221.28;;;14.05;100.00
33075;BME280;19433;51.292;6.868;2023-08-08T06:11:58;100226.28;;;13.96;100.00
33075;BME280;19433;51.292;6.868;2023-08-08T06:14:24;100226.41;;;13.90;100.00
33075;BME280;19433;51.292;6.868;2023-08-08T06:16:49;100212.41;;;13.96;100.00
33075;BME280;19433;51.292;6.868;2023-08-08T06:19:15;100212.63;;;13.95;100.00
33075;BME280;19433;51.292;6.868;2023-08-08T06:21:41;100233.22;;;14.05;100.00
33075;BME280;19433;51.292;6.868;2023-08-08T06:24:06;100226.22;;;14.03;100.00
33075;BME280;19433;51.292;6.868;2023-08-08T06:26:32;100230.38;;;14.12;100.00
33075;BME280;19433;51.292;6.868;2023-08-08T06:28:57;100217.91;;;14.03;100.00
33075;BME280;19433;51.292;6.868;2023-08-08T06:31:22;100228.63;;;13.99;100.00
33075;BME280;19433;51.292;6.868;2023-08-08T06:33:48;100243.34;;;14.18;100.00
33075;BME280;19433;51.292;6.868;2023-08-08T06:36:13;100229.97;;;14.08;100.00
33075;BME280;19433;51.292;6.868;2023-08-08T06:38:39;100241.88;;;14.16;100.00
33075;BME280;19433;51.292;6.868;2023-08-08T06:41:04;100232.22;;;14.18;100.00
33075;BME280;19433;51.292;6.868;2023-08-08T06:43:30;100238.75;;;14.24;100.00
33075;BME280;19433;51.292;6.868;2023-08-08T06:45:56;100241.69;;;14.29;100.00
33075;BME280;19433;51.292;6.868;2023-08-08T06:48:22;100247.31;;;14.22;100.00
33075;BME280;19433;51.292;6.868;2023-08-08T06:50:47;100228.72;;;14.23;100.00
33075;BME280;19433;51.292;6.868;2023-08-08T06:53:12;100242.84;;;14.21;100.00
33075;BME280;19433;51.292;6.868;2023-08-08T06:55:38;100239.41;;;14.37;100.00
33075;BME280;19433;51.292;6.868;2023-08-08T06:58:03;100238.50;;;14.73;100.00
33075;BME280;19433;51.292;6.868;2023-08-08T07:00:29;100232.81;;;14.68;100.00
33075;BME280;19433;51.292;6.868;2023-08-08T07:02:55;100229.94;;;14.75;100.00
33075;BME280;19433;51.292;6.868;2023-08-08T07:05:20;100224.53;;;14.92;100.00
33075;BME280;19433;51.292;6.868;2023-08-08T07:07:47;100232.41;;;15.06;100.00
33075;BME280;19433;51.292;6.868;2023-08-08T07:10:13;100236.53;;;15.16;100.00
33075;BME280;19433;51.292;6.868;2023-08-08T07:12:38;100236.19;;;15.24;99.81
33075;BME280;19433;51.292;6.868;2023-08-08T07:15:06;100235.22;;;15.30;100.00
33075;BME280;19433;51.292;6.868;2023-08-08T07:17:33;100232.69;;;15.52;99.39
33075;BME280;19433;51.292;6.868;2023-08-08T07:19:59;100231.94;;;16.03;95.85
33075;BME280;19433;51.292;6.868;2023-08-08T07:22:24;100230.69;;;16.39;94.48
33075;BME280;19433;51.292;6.868;2023-08-08T07:24:49;100247.41;;;16.79;91.83
33075;BME280;19433;51.292;6.868;2023-08-08T07:27:15;100239.66;;;16.98;90.63
33075;BME280;19433;51.292;6.868;2023-08-08T07:29:40;100229.50;;;16.92;88.72
33075;BME280;19433;51.292;6.868;2023-08-08T07:32:05;100228.16;;;16.94;89.76
33075;BME280;19433;51.292;6.868;2023-08-08T07:34:31;100228.31;;;16.87;91.18
33075;BME280;19433;51.292;6.868;2023-08-08T07:36:57;100226.16;;;17.23;89.54
33075;BME280;19433;51.292;6.868;2023-08-08T07:39:23;100226.47;;;17.27;87.78
33075;BME280;19433;51.292;6.868;2023-08-08T07:41:48;100228.50;;;17.31;87.95
33075;BME280;19433;51.292;6.868;2023-08-08T07:44:13;100223.94;;;17.25;87.45
33075;BME280;19433;51.292;6.868;2023-08-08T07:46:38;100220.81;;;16.60;89.87
33075;BME280;19433;51.292;6.868;2023-08-08T07:49:04;100220.25;;;16.46;90.97
33075;BME280;19433;51.292;6.868;2023-08-08T07:51:30;100212.47;;;17.60;87.62
33075;BME280;19433;51.292;6.868;2023-08-08T07:53:56;100226.72;;;19.21;81.27
33075;BME280;19433;51.292;6.868;2023-08-08T07:56:21;100237.94;;;19.53;76.11
33075;BME280;19433;51.292;6.868;2023-08-08T07:58:46;100228.97;;;18.66;77.87
33075;BME280;19433;51.292;6.868;2023-08-08T08:01:12;100229.94;;;17.50;84.03
33075;BME280;19433;51.292;6.868;2023-08-08T08:03:40;100224.94;;;17.19;86.13
33075;BME280;19433;51.292;6.868;2023-08-08T08:06:05;100227.28;;;17.61;85.92
33075;BME280;19433;51.292;6.868;2023-08-08T08:08:31;100229.78;;;17.96;83.57
33075;BME280;19433;51.292;6.868;2023-08-08T08:10:56;100230.38;;;17.98;82.71
33075;BME280;19433;51.292;6.868;2023-08-08T08:13:21;100226.19;;;17.78;82.80
33075;BME280;19433;51.292;6.868;2023-08-08T08:15:47;100223.75;;;17.48;83.86
33075;BME280;19433;51.292;6.868;2023-08-08T08:18:13;100228.66;;;16.91;86.60
33075;BME280;19433;51.292;6.868;2023-08-08T08:20:39;100237.84;;;16.75;88.17
33075;BME280;19433;51.292;6.868;2023-08-08T08:23:04;100219.50;;;16.50;89.73
33075;BME280;19433;51.292;6.868;2023-08-08T08:25:30;100229.88;;;16.95;88.59
33075;BME280;19433;51.292;6.868;2023-08-08T08:27:57;100228.22;;;17.83;85.02
33075;BME280;19433;51.292;6.868;2023-08-08T08:30:22;100231.97;;;18.37;81.94
33075;BME280;19433;51.292;6.868;2023-08-08T08:32:50;100240.84;;;19.05;77.56
33075;BME280;19433;51.292;6.868;2023-08-08T08:35:16;100242.13;;;19.56;75.38
33075;BME280;19433;51.292;6.868;2023-08-08T08:37:42;100248.16;;;19.11;76.91
33075;BME280;19433;51.292;6.868;2023-08-08T08:40:07;100232.66;;;18.01;80.80
33075;BME280;19433;51.292;6.868;2023-08-08T08:42:34;100240.53;;;18.74;79.69
33075;BME280;19433;51.292;6.868;2023-08-08T08:45:03;100229.84;;;18.98;76.30
33075;BME280;19433;51.292;6.868;2023-08-08T08:47:30;100246.28;;;20.38;71.86
33075;BME280;19433;51.292;6.868;2023-08-08T08:49:56;100236.94;;;20.32;69.87
33075;BME280;19433;51.292;6.868;2023-08-08T08:52:22;100241.13;;;19.72;71.51
33075;BME280;19433;51.292;6.868;2023-08-08T08:54:51;100235.19;;;19.63;72.48
33075;BME280;19433;51.292;6.868;2023-08-08T08:57:17;100232.81;;;20.40;70.74
33075;BME280;19433;51.292;6.868;2023-08-08T08:59:42;100240.97;;;19.94;71.00
33075;BME280;19433;51.292;6.868;2023-08-08T09:02:08;100233.19;;;18.95;75.83
33075;BME280;19433;51.292;6.868;2023-08-08T09:04:36;100231.38;;;18.35;78.47
33075;BME280;19433;51.292;6.868;2023-08-08T09:07:02;100223.94;;;18.68;78.56
33075;BME280;19433;51.292;6.868;2023-08-08T09:09:31;100244.19;;;18.53;77.29
33075;BME280;19433;51.292;6.868;2023-08-08T09:11:57;100228.41;;;18.42;79.72
33075;BME280;19433;51.292;6.868;2023-08-08T09:14:24;100237.53;;;18.32;80.06
33075;BME280;19433;51.292;6.868;2023-08-08T09:16:50;100222.41;;;17.89;81.65
33075;BME280;19433;51.292;6.868;2023-08-08T09:19:18;100233.19;;;18.03;81.53
33075;BME280;19433;51.292;6.868;2023-08-08T09:21:43;100224.13;;;18.12;81.66
33075;BME280;19433;51.292;6.868;2023-08-08T09:24:09;100215.53;;;17.97;82.87
33075;BME280;19433;51.292;6.868;2023-08-08T09:26:34;100227.59;;;18.95;78.48
33075;BME280;19433;51.292;6.868;2023-08-08T09:29:01;100234.03;;;20.07;73.87
33075;BME280;19433;51.292;6.868;2023-08-08T09:31:26;100228.16;;;20.81;69.22
33075;BME280;19433;51.292;6.868;2023-08-08T09:33:59;100231.59;;;21.54;68.14
33075;BME280;19433;51.292;6.868;2023-08-08T09:36:24;100236.38;;;22.58;63.82
33075;BME280;19433;51.292;6.868;2023-08-08T09:38:50;100225.94;;;22.59;62.40
33075;BME280;19433;51.292;6.868;2023-08-08T09:41:16;100234.31;;;21.94;62.66
33075;BME280;19433;51.292;6.868;2023-08-08T09:43:44;100238.84;;;23.14;61.36
33075;BME280;19433;51.292;6.868;2023-08-08T09:46:10;100250.59;;;23.89;56.24
33075;BME280;19433;51.292;6.868;2023-08-08T09:48:38;100251.59;;;23.74;56.14
33075;BME280;19433;51.292;6.868;2023-08-08T09:51:04;100243.66;;;23.81;53.75
33075;BME280;19433;51.292;6.868;2023-08-08T09:53:31;100239.06;;;23.57;53.74
33075;BME280;19433;51.292;6.868;2023-08-08T09:55:57;100241.06;;;22.03;58.64
33075;BME280;19433;51.292;6.868;2023-08-08T09:58:22;100240.56;;;21.71;61.69
33075;BME280;19433;51.292;6.868;2023-08-08T10:00:50;100239.66;;;22.06;59.23
33075;BME280;19433;51.292;6.868;2023-08-08T10:03:16;100246.75;;;21.73;59.23
33075;BME280;19433;51.292;6.868;2023-08-08T10:05:42;100230.88;;;20.50;62.94
33075;BME280;19433;51.292;6.868;2023-08-08T10:08:08;100247.41;;;19.89;65.66
33075;BME280;19433;51.292;6.868;2023-08-08T10:10:34;100243.97;;;19.77;67.81
33075;BME280;19433;51.292;6.868;2023-08-08T10:12:59;100229.28;;;19.28;69.98
33075;BME280;19433;51.292;6.868;2023-08-08T10:15:26;100237.94;;;19.26;71.45
33075;BME280;19433;51.292;6.868;2023-08-08T10:17:57;100221.59;;;18.33;75.07
33075;BME280;19433;51.292;6.868;2023-08-08T10:20:24;100247.59;;;18.11;75.88
33075;BME280;19433;51.292;6.868;2023-08-08T10:22:52;100232.25;;;18.14;77.45
33075;BME280;19433;51.292;6.868;2023-08-08T10:25:25;100232.31;;;17.97;77.60
33075;BME280;19433;51.292;6.868;2023-08-08T10:28:05;100229.06;;;18.05;77.79
33075;BME280;19433;51.292;6.868;2023-08-08T10:30:48;100226.06;;;18.12;77.62
33075;BME280;19433;51.292;6.868;2023-08-08T10:33:24;100220.16;;;18.08;76.42
33075;BME280;19433;51.292;6.868;2023-08-08T10:36:01;100220.25;;;17.75;77.80
33075;BME280;19433;51.292;6.868;2023-08-08T10:38:39;100227.53;;;17.76;78.09
33075;BME280;19433;51.292;6.868;2023-08-08T10:41:05;100219.28;;;17.31;77.85
33075;BME280;19433;51.292;6.868;2023-08-08T10:43:33;100232.97;;;17.49;77.28
33075;BME280;19433;51.292;6.868;2023-08-08T10:46:03;100226.59;;;17.87;76.54
33075;BME280;19433;51.292;6.868;2023-08-08T10:48:29;100235.22;;;17.85;75.86
33075;BME280;19433;51.292;6.868;2023-08-08T10:50:58;100240.00;;;17.68;77.19
33075;BME280;19433;51.292;6.868;2023-08-08T10:53:28;100238.16;;;17.96;78.12
33075;BME280;19433;51.292;6.868;2023-08-08T10:55:58;100238.31;;;17.50;80.20
33075;BME280;19433;51.292;6.868;2023-08-08T10:58:38;100235.38;;;17.40;82.22
33075;BME280;19433;51.292;6.868;2023-08-08T11:01:04;100232.47;;;17.52;82.66
33075;BME280;19433;51.292;6.868;2023-08-08T11:03:39;100238.72;;;17.42;82.88
33075;BME280;19433;51.292;6.868;2023-08-08T11:06:09;100238.50;;;17.10;87.87
33075;BME280;19433;51.292;6.868;2023-08-08T11:08:35;100245.91;;;16.60;90.83
33075;BME280;19433;51.292;6.868;2023-08-08T11:11:02;100243.94;;;16.72;91.40
33075;BME280;19433;51.292;6.868;2023-08-08T11:13:28;100247.59;;;16.89;88.34
33075;BME280;19433;51.292;6.868;2023-08-08T11:15:53;100227.25;;;17.05;87.54
33075;BME280;19433;51.292;6.868;2023-08-08T11:18:19;100242.78;;;17.01;87.47
33075;BME280;19433;51.292;6.868;2023-08-08T11:20:44;100237.53;;;16.88;86.16
33075;BME280;19433;51.292;6.868;2023-08-08T11:23:10;100256.91;;;17.78;82.48
33075;BME280;19433;51.292;6.868;2023-08-08T11:25:40;100217.44;;;18.13;80.14
33075;BME280;19433;51.292;6.868;2023-08-08T11:28:07;100233.09;;;19.49;77.05
33075;BME280;19433;51.292;6.868;2023-08-08T11:30:35;100240.25;;;20.91;68.13
33075;BME280;19433;51.292;6.868;2023-08-08T11:33:02;100247.50;;;20.67;66.50
33075;BME280;19433;51.292;6.868;2023-08-08T11:35:28;100229.75;;;20.46;68.57
33075;BME280;19433;51.292;6.868;2023-08-08T11:37:56;100220.25;;;20.62;67.72
33075;BME280;19433;51.292;6.868;2023-08-08T11:40:23;100227.91;;;20.15;68.57
33075;BME280;19433;51.292;6.868;2023-08-08T11:42:52;100223.69;;;20.17;68.40
33075;BME280;19433;51.292;6.868;2023-08-08T11:45:18;100221.50;;;20.24;67.55
33075;BME280;19433;51.292;6.868;2023-08-08T11:47:44;100212.13;;;19.51;70.54
33075;BME280;19433;51.292;6.868;2023-08-08T11:50:10;100216.50;;;19.05;71.86
33075;BME280;19433;51.292;6.868;2023-08-08T11:52:40;100191.66;;;18.33;74.64
33075;BME280;19433;51.292;6.868;2023-08-08T11:55:07;100197.66;;;17.98;77.24
33075;BME280;19433;51.292;6.868;2023-08-08T11:57:35;100202.78;;;18.06;76.63
33075;BME280;19433;51.292;6.868;2023-08-08T12:00:00;100206.44;;;17.85;76.90
33075;BME280;19433;51.292;6.868;2023-08-08T12:02:27;100210.88;;;17.47;79.84
33075;BME280;19433;51.292;6.868;2023-08-08T12:04:52;100208.88;;;17.26;81.62
33075;BME280;19433;51.292;6.868;2023-08-08T12:07:18;100205.25;;;16.92;83.20
33075;BME280;19433;51.292;6.868;2023-08-08T12:09:47;100222.72;;;16.71;87.43
33075;BME280;19433;51.292;6.868;2023-08-08T12:12:13;100206.50;;;16.28;90.10
33075;BME280;19433;51.292;6.868;2023-08-08T12:14:39;100214.75;;;16.23;92.95
33075;BME280;19433;51.292;6.868;2023-08-08T12:17:05;100217.00;;;16.37;94.03
33075;BME280;19433;51.292;6.868;2023-08-08T12:19:31;100204.16;;;16.36;90.50
33075;BME280;19433;51.292;6.868;2023-08-08T12:21:56;100208.75;;;16.42;89.35
33075;BME280;19433;51.292;6.868;2023-08-08T12:24:21;100212.31;;;16.54;87.08
33075;BME280;19433;51.292;6.868;2023-08-08T12:26:47;100213.75;;;16.69;86.00
33075;BME280;19433;51.292;6.868;2023-08-08T12:29:13;100225.78;;;16.86;87.21
33075;BME280;19433;51.292;6.868;2023-08-08T12:31:38;100215.03;;;16.78;85.43
33075;BME280;19433;51.292;6.868;2023-08-08T12:34:04;100227.66;;;17.14;84.81
33075;BME280;19433;51.292;6.868;2023-08-08T12:36:30;100221.22;;;17.47;81.62
33075;BME280;19433;51.292;6.868;2023-08-08T12:38:55;100223.78;;;18.09;79.57
33075;BME280;19433;51.292;6.868;2023-08-08T12:41:20;100232.56;;;18.88;77.16